CheckWX is a tool to help pilots better visualize weather data.  It is not intended as a substitute for an official pre-flight weather briefing.

16:16:52 UTC

KCDJ METAR
Chillicothe Agri-Science Center Airport
Chillicothe, Missouri, USA
Current

25 mins ago

KCDJ 261552Z AUTO 12006KT 23/21 A2980 RMK AO1 SLP079 P0001 T02330206
Observed
May-26 @ 15:52 UTC
Wind
  • 120° at 6 KTS
Visibility
Cloud Levels
Temperature
23°C / 73°F
Dewpoint
21°C / 70°F
Humidity
89%
Altimeter
29.8" Hg
Pressure
1009.12 hPa
Current Rain
0.01"
Previous

1 hour ago

KCDJ 261452Z AUTO 12010G16KT 22/20 A2980 RMK AO1 SLP082 P0003 60006 T02170200 58007
Observed
May-26 @ 14:52 UTC
Wind
  • 120° at 10 KTS
  • Gusting to 16 KTS
Visibility
Cloud Levels
Temperature
22°C / 72°F
Dewpoint
20°C / 68°F
Humidity
88%
Altimeter
29.8" Hg
Pressure
1009.12 hPa
Current Rain
0.03"
Previous

2 hours ago

KCDJ 261352Z AUTO VRB05KT 21/19 A2981 RMK AO1 SLP086 P0003 T02060194
Observed
May-26 @ 13:52 UTC
Wind
  • Variable at 5 KTS
Visibility
Cloud Levels
Temperature
21°C / 70°F
Dewpoint
19°C / 66°F
Humidity
88%
Altimeter
29.81" Hg
Pressure
1009.52 hPa
Current Rain
0.03"